Time;durP1;ratioP1;P1;durP2;ratioP2;P2;SDS_P1;SDS_P2;PMS_P1;PMS_P2;Temp;Humidity;BMP_temperature;BMP_pressure;BME280_temperature;BME280_humidity;BME280_pressure;Samples;Min_cycle;Max_cycle;Signal;HPM_P1;HPM_P2
2022/06/09 00:01:52;;;;;;;;;;;23.30;76.60;;;;;;5071462;28;20349;-70
2022/06/09 00:04:24;;;;;;;;;;;23.20;76.70;;;;;;5071421;28;19909;-69
2022/06/09 00:06:56;;;;;;;;;;;23.20;76.80;;;;;;5070216;28;20009;-69
2022/06/09 00:09:27;;;;;;;;;;;23.20;76.80;;;;;;5071311;28;19924;-69
2022/06/09 00:11:53;;;;;;;;;;;23.20;77.50;;;;;;5071389;28;19967;-69
2022/06/09 00:14:19;;;;;;;;;;;23.20;76.90;;;;;;5070016;28;20380;-69
2022/06/09 00:16:44;;;;;;;;;;;23.10;76.90;;;;;;5071610;28;19912;-69
2022/06/09 00:19:11;;;;;;;;;;;23.10;77.50;;;;;;5071595;28;19910;-70
2022/06/09 00:21:37;;;;;;;;;;;23.00;78.50;;;;;;5072070;28;19919;-70
2022/06/09 00:24:03;;;;;;;;;;;22.90;78.10;;;;;;5071465;28;20347;-69
2022/06/09 00:26:29;;;;;;;;;;;22.90;77.90;;;;;;5071985;28;19934;-69
2022/06/09 00:28:55;;;;;;;;;;;22.90;78.40;;;;;;5071196;28;20028;-69
2022/06/09 00:31:20;;;;;;;;;;;22.80;80.00;;;;;;5071640;28;19920;-70
2022/06/09 00:33:46;;;;;;;;;;;22.70;79.70;;;;;;5071079;28;19912;-69
2022/06/09 00:36:12;;;;;;;;;;;22.60;79.40;;;;;;5070082;28;19912;-69
2022/06/09 00:38:37;;;;;;;;;;;22.60;79.40;;;;;;5070969;28;19913;-70
2022/06/09 00:41:03;;;;;;;;;;;22.50;79.70;;;;;;5071587;28;19929;-69
2022/06/09 00:43:32;;;;;;;;;;;22.40;80.00;;;;;;5071249;28;19944;-69
2022/06/09 00:45:57;;;;;;;;;;;22.30;80.40;;;;;;5071588;28;20417;-69
2022/06/09 00:48:46;;;;;;;;;;;22.20;80.80;;;;;;5071225;28;19990;-69
2022/06/09 00:51:20;;;;;;;;;;;22.10;80.90;;;;;;5061854;28;19917;-69
2022/06/09 00:53:48;;;;;;;;;;;22.10;82.00;;;;;;5070965;28;19966;-70
2022/06/09 00:56:13;;;;;;;;;;;22.00;82.60;;;;;;5070021;28;20356;-69
2022/06/09 00:58:40;;;;;;;;;;;21.90;83.90;;;;;;5070784;28;19912;-70
2022/06/09 01:01:08;;;;;;;;;;;21.80;88.60;;;;;;5071121;28;19916;-70
2022/06/09 01:03:40;;;;;;;;;;;21.70;88.90;;;;;;5070938;28;19917;-70
2022/06/09 01:06:11;;;;;;;;;;;21.60;88.90;;;;;;5071439;28;19932;-70
2022/06/09 01:08:40;;;;;;;;;;;21.60;89.40;;;;;;5070878;28;19916;-70
2022/06/09 01:11:06;;;;;;;;;;;21.60;89.90;;;;;;5070840;28;19920;-69
2022/06/09 01:13:32;;;;;;;;;;;21.40;90.30;;;;;;5070804;28;19913;-70
2022/06/09 01:16:08;;;;;;;;;;;21.40;90.80;;;;;;5071425;28;19913;-70
2022/06/09 01:18:50;;;;;;;;;;;21.40;90.80;;;;;;5071053;28;19917;-69
2022/06/09 01:21:37;;;;;;;;;;;21.40;90.80;;;;;;5071356;28;19919;-69
2022/06/09 01:24:22;;;;;;;;;;;21.30;92.10;;;;;;5070667;28;19924;-70
2022/06/09 01:26:50;;;;;;;;;;;21.20;91.60;;;;;;5070963;28;19923;-70
2022/06/09 01:29:35;;;;;;;;;;;21.30;91.00;;;;;;5070532;28;20306;-70
2022/06/09 01:32:09;;;;;;;;;;;21.40;90.80;;;;;;5073250;28;19924;-70
2022/06/09 01:34:44;;;;;;;;;;;21.40;90.30;;;;;;5074056;28;20302;-70
2022/06/09 01:37:19;;;;;;;;;;;21.50;90.50;;;;;;5074241;28;19912;-70
2022/06/09 01:39:49;;;;;;;;;;;21.40;90.20;;;;;;5073897;28;19912;-70
2022/06/09 01:42:34;;;;;;;;;;;21.50;89.90;;;;;;5074307;28;19938;-69
2022/06/09 01:45:03;;;;;;;;;;;21.40;90.00;;;;;;5073958;28;19912;-71
2022/06/09 01:47:36;;;;;;;;;;;21.40;90.20;;;;;;5074104;28;19961;-70
2022/06/09 01:50:05;;;;;;;;;;;21.40;90.00;;;;;;5073977;28;20011;-70
2022/06/09 01:52:31;;;;;;;;;;;21.40;88.80;;;;;;5073950;28;19916;-70
2022/06/09 01:54:58;;;;;;;;;;;21.50;88.40;;;;;;5073840;28;19912;-69
2022/06/09 01:57:28;;;;;;;;;;;21.50;89.00;;;;;;5074024;28;19922;-70
2022/06/09 01:59:57;;;;;;;;;;;21.40;89.40;;;;;;5073798;28;19923;-70
2022/06/09 02:02:28;;;;;;;;;;;21.40;89.30;;;;;;5073996;28;20392;-70
2022/06/09 02:04:57;;;;;;;;;;;21.40;89.60;;;;;;5073599;28;19921;-71
2022/06/09 02:07:25;;;;;;;;;;;21.30;90.00;;;;;;5073859;28;19913;-71
2022/06/09 02:09:50;;;;;;;;;;;21.20;90.00;;;;;;5073680;28;19917;-70
2022/06/09 02:12:18;;;;;;;;;;;21.20;90.00;;;;;;5073689;28;19917;-70
2022/06/09 02:14:47;;;;;;;;;;;21.20;90.10;;;;;;5073529;28;20007;-70
2022/06/09 02:17:13;;;;;;;;;;;21.20;89.70;;;;;;5073577;28;19912;-70
2022/06/09 02:19:39;;;;;;;;;;;21.10;89.90;;;;;;5072086;28;19981;-70
2022/06/09 02:22:06;;;;;;;;;;;21.20;89.70;;;;;;5073477;28;20011;-70
2022/06/09 02:24:32;;;;;;;;;;;21.20;89.40;;;;;;5073134;28;19925;-71
2022/06/09 02:27:00;;;;;;;;;;;21.20;89.10;;;;;;5072740;28;20413;-70
2022/06/09 02:29:25;;;;;;;;;;;21.30;88.60;;;;;;5073128;28;19952;-69
2022/06/09 02:31:51;;;;;;;;;;;21.40;88.30;;;;;;5073156;28;20448;-70
2022/06/09 02:34:17;;;;;;;;;;;21.40;87.70;;;;;;5072954;28;19915;-69
2022/06/09 02:36:43;;;;;;;;;;;21.50;87.50;;;;;;5073132;28;19921;-69
2022/06/09 02:39:08;;;;;;;;;;;21.60;87.70;;;;;;5072994;28;19954;-70
2022/06/09 02:41:34;;;;;;;;;;;21.60;87.50;;;;;;5071835;28;19912;-70
2022/06/09 02:44:00;;;;;;;;;;;21.60;87.90;;;;;;5073211;28;19916;-69
2022/06/09 02:46:25;;;;;;;;;;;21.50;87.80;;;;;;5073373;28;19915;-70
2022/06/09 02:48:52;;;;;;;;;;;21.50;88.30;;;;;;5072689;28;19962;-70
2022/06/09 02:51:26;;;;;;;;;;;21.50;88.30;;;;;;5073155;28;19920;-70
2022/06/09 02:53:52;;;;;;;;;;;21.50;88.50;;;;;;5073156;28;19927;-70
2022/06/09 02:56:17;;;;;;;;;;;21.50;88.40;;;;;;5073239;28;20355;-70
2022/06/09 02:58:43;;;;;;;;;;;21.50;88.60;;;;;;5072470;28;19920;-70
2022/06/09 03:01:09;;;;;;;;;;;21.50;88.40;;;;;;5072892;28;19947;-70
2022/06/09 03:03:35;;;;;;;;;;;21.60;88.80;;;;;;5072562;28;20296;-70
2022/06/09 03:06:00;;;;;;;;;;;21.50;89.30;;;;;;5072792;28;19909;-70
2022/06/09 03:08:26;;;;;;;;;;;21.50;89.60;;;;;;5070859;28;20379;-70
2022/06/09 03:10:52;;;;;;;;;;;21.40;89.50;;;;;;5072308;28;19924;-70
2022/06/09 03:13:17;;;;;;;;;;;21.50;89.10;;;;;;5072493;28;20404;-70
2022/06/09 03:15:43;;;;;;;;;;;21.50;89.00;;;;;;5072636;28;19915;-70
2022/06/09 03:18:09;;;;;;;;;;;21.50;89.10;;;;;;5072486;28;19966;-70
2022/06/09 03:20:34;;;;;;;;;;;21.60;89.00;;;;;;5072169;28;20287;-70
2022/06/09 03:23:00;;;;;;;;;;;21.60;89.30;;;;;;5072867;28;19963;-70
2022/06/09 03:25:26;;;;;;;;;;;21.60;88.70;;;;;;5072049;28;19954;-69
2022/06/09 03:27:51;;;;;;;;;;;21.70;88.30;;;;;;5072060;28;19969;-69
2022/06/09 03:30:17;;;;;;;;;;;21.70;88.30;;;;;;5072029;28;19912;-69
2022/06/09 03:32:42;;;;;;;;;;;21.80;87.30;;;;;;5054093;28;20019;-69
2022/06/09 03:35:08;;;;;;;;;;;22.00;86.50;;;;;;5071962;28;19908;-70
2022/06/09 03:37:35;;;;;;;;;;;22.00;86.00;;;;;;5072164;28;19989;-70
2022/06/09 03:40:00;;;;;;;;;;;22.00;85.80;;;;;;5071702;28;19953;-69
2022/06/09 03:42:26;;;;;;;;;;;22.10;85.10;;;;;;5072035;28;19917;-70
2022/06/09 03:44:51;;;;;;;;;;;22.20;84.80;;;;;;5071877;28;19909;-70
2022/06/09 03:47:17;;;;;;;;;;;22.40;84.80;;;;;;5071970;28;19978;-70
2022/06/09 03:49:42;;;;;;;;;;;22.40;83.70;;;;;;5071877;28;19916;-70
2022/06/09 03:52:08;;;;;;;;;;;22.50;84.80;;;;;;5071849;28;19924;-70
2022/06/09 03:54:33;;;;;;;;;;;22.60;84.60;;;;;;5071395;28;20392;-70
2022/06/09 03:56:59;;;;;;;;;;;22.60;83.80;;;;;;5071782;28;19916;-70
2022/06/09 03:59:24;;;;;;;;;;;22.70;82.70;;;;;;5071359;28;19915;-70
2022/06/09 04:01:50;;;;;;;;;;;22.70;82.00;;;;;;5071555;28;19917;-70
2022/06/09 04:04:15;;;;;;;;;;;22.80;82.10;;;;;;5071345;28;19913;-70
2022/06/09 04:06:41;;;;;;;;;;;22.90;81.50;;;;;;5071563;28;19916;-70
2022/06/09 04:09:07;;;;;;;;;;;22.90;81.00;;;;;;5071338;28;19958;-71
2022/06/09 04:11:32;;;;;;;;;;;23.00;81.80;;;;;;5071977;28;19913;-70
2022/06/09 04:13:58;;;;;;;;;;;23.00;82.70;;;;;;5071331;28;19967;-70
2022/06/09 04:16:24;;;;;;;;;;;23.00;82.00;;;;;;5071849;28;19916;-70
2022/06/09 04:18:50;;;;;;;;;;;23.10;81.20;;;;;;5071160;28;20433;-70
2022/06/09 04:21:16;;;;;;;;;;;23.10;80.80;;;;;;5071227;28;20444;-70
2022/06/09 04:23:42;;;;;;;;;;;23.10;80.40;;;;;;5070924;28;19974;-70
2022/06/09 04:26:09;;;;;;;;;;;23.20;80.90;;;;;;5071785;28;19917;-70
2022/06/09 04:28:34;;;;;;;;;;;23.20;81.40;;;;;;5071221;28;20007;-70
2022/06/09 04:31:00;;;;;;;;;;;23.30;81.10;;;;;;5070033;28;20054;-70
2022/06/09 04:33:26;;;;;;;;;;;23.30;81.20;;;;;;5069845;28;19916;-70
2022/06/09 04:35:51;;;;;;;;;;;23.40;82.70;;;;;;5070148;28;19917;-70
2022/06/09 04:38:16;;;;;;;;;;;23.50;82.70;;;;;;5071147;28;20409;-71
2022/06/09 04:40:42;;;;;;;;;;;23.50;82.30;;;;;;5071592;28;19939;-69
2022/06/09 04:43:09;;;;;;;;;;;23.50;82.70;;;;;;5071562;28;19913;-68
2022/06/09 04:45:36;;;;;;;;;;;23.60;82.50;;;;;;5071495;28;20372;-69
2022/06/09 04:48:02;;;;;;;;;;;23.70;81.90;;;;;;5071123;28;19912;-70
2022/06/09 04:50:27;;;;;;;;;;;23.70;81.30;;;;;;5071199;28;19916;-70
2022/06/09 04:52:53;;;;;;;;;;;23.80;81.20;;;;;;5070946;28;19974;-70
2022/06/09 04:55:18;;;;;;;;;;;23.90;81.10;;;;;;5071021;28;19912;-69
2022/06/09 04:57:44;;;;;;;;;;;23.90;79.90;;;;;;5071266;28;19917;-69
2022/06/09 05:00:11;;;;;;;;;;;24.00;81.90;;;;;;5071054;28;19913;-69
2022/06/09 05:02:36;;;;;;;;;;;24.00;82.10;;;;;;5071086;28;19913;-69
2022/06/09 05:05:02;;;;;;;;;;;24.10;81.90;;;;;;5070913;28;20295;-69
2022/06/09 05:07:28;;;;;;;;;;;24.20;81.20;;;;;;5074522;28;19986;-69
2022/06/09 05:09:54;;;;;;;;;;;24.30;80.10;;;;;;5075013;28;19920;-69
2022/06/09 05:12:20;;;;;;;;;;;24.30;80.40;;;;;;5074686;28;19928;-69
2022/06/09 05:14:46;;;;;;;;;;;24.40;81.50;;;;;;5074401;28;19965;-65
2022/06/09 05:17:11;;;;;;;;;;;24.30;81.90;;;;;;5075129;28;19999;-65
2022/06/09 05:19:37;;;;;;;;;;;24.40;82.70;;;;;;5074345;28;19924;-65
2022/06/09 05:22:02;;;;;;;;;;;24.40;82.90;;;;;;5074585;28;19913;-65
2022/06/09 05:24:28;;;;;;;;;;;24.40;82.60;;;;;;5074024;28;19921;-64
2022/06/09 05:26:53;;;;;;;;;;;24.40;84.80;;;;;;5072688;28;19933;-65
2022/06/09 05:29:19;;;;;;;;;;;24.60;90.10;;;;;;5074147;28;19998;-64
2022/06/09 05:31:44;;;;;;;;;;;24.60;90.60;;;;;;5074069;28;19920;-62
2022/06/09 05:34:10;;;;;;;;;;;24.70;90.60;;;;;;5073917;28;19913;-65
2022/06/09 05:36:36;;;;;;;;;;;24.70;89.80;;;;;;5074591;28;19912;-63
2022/06/09 05:47:13;;;;;;;;;;;25.00;87.40;;;;;;5073933;28;19961;-64
2022/06/09 05:49:39;;;;;;;;;;;25.20;87.40;;;;;;5073868;28;19909;-64
2022/06/09 05:52:04;;;;;;;;;;;25.10;80.80;;;;;;5072101;28;19928;-65
2022/06/09 05:54:30;;;;;;;;;;;25.20;77.70;;;;;;5073489;28;20395;-64
2022/06/09 05:56:57;;;;;;;;;;;25.30;77.80;;;;;;5073840;28;20402;-63
2022/06/09 05:59:22;;;;;;;;;;;25.40;78.10;;;;;;5073591;28;20037;-63
2022/06/09 06:01:48;;;;;;;;;;;25.50;76.80;;;;;;5073565;28;19967;-63
2022/06/09 06:04:14;;;;;;;;;;;25.60;76.90;;;;;;5072081;28;19912;-63
2022/06/09 06:06:39;;;;;;;;;;;25.70;75.90;;;;;;5072100;28;19916;-64
2022/06/09 06:09:07;;;;;;;;;;;25.80;77.20;;;;;;5071919;28;19916;-63
2022/06/09 06:11:36;;;;;;;;;;;25.80;77.20;;;;;;5073072;28;20361;-64
2022/06/09 06:14:02;;;;;;;;;;;25.90;76.60;;;;;;5073322;28;20368;-64
2022/06/09 06:16:28;;;;;;;;;;;26.00;77.70;;;;;;5073330;28;19955;-63
2022/06/09 06:18:54;;;;;;;;;;;25.90;76.80;;;;;;5073092;28;19923;-63
2022/06/09 06:21:20;;;;;;;;;;;26.10;77.30;;;;;;5073183;28;20322;-63
2022/06/09 06:23:46;;;;;;;;;;;26.10;74.30;;;;;;5073202;28;19925;-63
2022/06/09 06:26:12;;;;;;;;;;;26.20;75.00;;;;;;5073569;28;19943;-63
2022/06/09 06:28:37;;;;;;;;;;;26.30;74.00;;;;;;5073189;28;19948;-64
2022/06/09 06:31:03;;;;;;;;;;;26.40;73.10;;;;;;5072755;28;19916;-64
2022/06/09 06:33:28;;;;;;;;;;;26.40;73.80;;;;;;5072691;28;19951;-65
2022/06/09 06:35:54;;;;;;;;;;;26.50;72.80;;;;;;5073291;28;20305;-63
2022/06/09 06:38:19;;;;;;;;;;;26.50;74.20;;;;;;5072725;28;19912;-63
2022/06/09 06:40:45;;;;;;;;;;;26.60;73.60;;;;;;5072960;28;19913;-63
2022/06/09 06:43:11;;;;;;;;;;;26.60;73.30;;;;;;5073029;28;19935;-62
2022/06/09 06:45:36;;;;;;;;;;;26.70;73.70;;;;;;5072948;28;19912;-62
2022/06/09 06:48:02;;;;;;;;;;;26.80;72.80;;;;;;5072767;28;19917;-63
2022/06/09 06:50:28;;;;;;;;;;;26.80;72.40;;;;;;5072862;28;19912;-65
2022/06/09 06:52:53;;;;;;;;;;;26.90;72.20;;;;;;5072763;28;19927;-64
2022/06/09 06:55:20;;;;;;;;;;;26.90;72.30;;;;;;5072400;28;19926;-63
2022/06/09 06:57:46;;;;;;;;;;;27.10;72.20;;;;;;5072442;28;20280;-63
2022/06/09 07:00:13;;;;;;;;;;;27.10;71.70;;;;;;5072382;28;19919;-63
2022/06/09 07:02:39;;;;;;;;;;;27.20;71.50;;;;;;5072695;28;19918;-63
2022/06/09 07:05:04;;;;;;;;;;;27.30;72.70;;;;;;5072230;28;20347;-64
2022/06/09 07:07:30;;;;;;;;;;;27.40;72.50;;;;;;5072417;28;19935;-64
2022/06/09 07:09:55;;;;;;;;;;;27.50;71.70;;;;;;5072198;28;20310;-64
2022/06/09 07:12:21;;;;;;;;;;;27.50;73.00;;;;;;5072285;28;19921;-64
2022/06/09 07:14:46;;;;;;;;;;;27.60;73.10;;;;;;5072076;28;19912;-64
2022/06/09 07:17:12;;;;;;;;;;;27.50;73.30;;;;;;5072159;28;19916;-64
2022/06/09 07:19:38;;;;;;;;;;;27.60;72.70;;;;;;5071953;28;19912;-64
2022/06/09 07:22:04;;;;;;;;;;;27.60;71.30;;;;;;5072386;28;19955;-64
2022/06/09 07:24:29;;;;;;;;;;;27.70;71.30;;;;;;5071896;28;20293;-64
2022/06/09 07:26:55;;;;;;;;;;;27.70;71.60;;;;;;5071954;28;19921;-64
2022/06/09 07:29:20;;;;;;;;;;;27.70;70.70;;;;;;5071042;28;19908;-64
2022/06/09 07:31:46;;;;;;;;;;;27.60;69.90;;;;;;5071913;28;20041;-65
2022/06/09 07:34:12;;;;;;;;;;;27.70;70.60;;;;;;5072062;28;19954;-64
2022/06/09 07:36:38;;;;;;;;;;;27.80;70.20;;;;;;5072124;28;19916;-64
2022/06/09 07:39:04;;;;;;;;;;;28.00;71.10;;;;;;5071920;28;19974;-64
2022/06/09 07:41:30;;;;;;;;;;;28.20;69.70;;;;;;5071627;28;19951;-64
2022/06/09 07:43:56;;;;;;;;;;;28.40;69.50;;;;;;5071523;28;19925;-64
2022/06/09 07:46:21;;;;;;;;;;;28.40;68.50;;;;;;5072056;28;19989;-64
2022/06/09 07:48:47;;;;;;;;;;;28.40;66.00;;;;;;5071448;28;20413;-62
2022/06/09 07:51:13;;;;;;;;;;;28.40;66.50;;;;;;5071996;28;19913;-65
2022/06/09 07:53:38;;;;;;;;;;;28.50;66.60;;;;;;5071574;28;19923;-64
2022/06/09 07:56:04;;;;;;;;;;;28.60;66.70;;;;;;5071892;28;20038;-64
2022/06/09 07:58:30;;;;;;;;;;;28.70;66.60;;;;;;5071606;28;19962;-64
2022/06/09 08:00:55;;;;;;;;;;;28.90;66.50;;;;;;5070024;28;20502;-64
2022/06/09 08:03:23;;;;;;;;;;;28.90;65.90;;;;;;5070477;28;19920;-64
2022/06/09 08:05:49;;;;;;;;;;;29.00;63.70;;;;;;5071660;28;19961;-63
2022/06/09 08:08:14;;;;;;;;;;;29.20;64.90;;;;;;5071581;28;19920;-64
2022/06/09 08:10:41;;;;;;;;;;;29.30;64.50;;;;;;5070815;28;20007;-63
2022/06/09 08:13:06;;;;;;;;;;;29.50;64.40;;;;;;5071246;28;19916;-67
2022/06/09 08:15:32;;;;;;;;;;;29.60;64.90;;;;;;5072685;28;19909;-81
2022/06/09 08:17:58;;;;;;;;;;;29.60;64.50;;;;;;5071094;28;19973;-80
2022/06/09 08:20:26;;;;;;;;;;;29.60;64.70;;;;;;5072399;28;20298;-80
2022/06/09 08:22:52;;;;;;;;;;;29.80;66.20;;;;;;5071987;28;20280;-79
2022/06/09 08:25:18;;;;;;;;;;;29.90;65.10;;;;;;5072001;28;19931;-80
2022/06/09 08:27:44;;;;;;;;;;;29.80;64.80;;;;;;5071358;28;19912;-80
2022/06/09 08:30:11;;;;;;;;;;;29.50;65.00;;;;;;5070198;28;20046;-80
2022/06/09 08:32:37;;;;;;;;;;;29.20;65.10;;;;;;5070449;28;19916;-80
2022/06/09 08:35:03;;;;;;;;;;;28.80;65.90;;;;;;5071805;28;19923;-79
2022/06/09 08:37:28;;;;;;;;;;;28.40;67.10;;;;;;5070352;28;19916;-80
2022/06/09 08:39:54;;;;;;;;;;;28.30;67.80;;;;;;5072447;28;19927;-79
2022/06/09 08:42:22;;;;;;;;;;;28.50;68.10;;;;;;5075268;28;19913;-79
2022/06/09 08:44:48;;;;;;;;;;;28.50;67.60;;;;;;5075399;28;19984;-79
2022/06/09 08:47:13;;;;;;;;;;;28.50;67.50;;;;;;5074356;28;20337;-79
2022/06/09 08:49:51;;;;;;;;;;;28.20;67.80;;;;;;5073956;28;19922;-79
2022/06/09 08:52:35;;;;;;;;;;;28.00;68.60;;;;;;5074842;28;19923;-80
2022/06/09 08:55:08;;;;;;;;;;;28.00;69.10;;;;;;5075292;28;20001;-80
2022/06/09 08:57:35;;;;;;;;;;;28.00;69.20;;;;;;5073886;28;19934;-80
2022/06/09 09:00:00;;;;;;;;;;;28.00;67.90;;;;;;5075144;28;19948;-81
2022/06/09 09:02:38;;;;;;;;;;;28.00;68.80;;;;;;5074565;28;19982;-64
2022/06/09 09:05:09;;;;;;;;;;;28.10;68.30;;;;;;5074564;28;19950;-64
2022/06/09 09:07:35;;;;;;;;;;;28.30;70.20;;;;;;5074404;28;19916;-64
2022/06/09 09:10:07;;;;;;;;;;;28.50;69.50;;;;;;5074314;28;19908;-64
2022/06/09 09:12:38;;;;;;;;;;;28.50;69.20;;;;;;5074184;28;20070;-64
2022/06/09 09:15:18;;;;;;;;;;;28.70;69.00;;;;;;5074385;28;20006;-63
2022/06/09 09:17:52;;;;;;;;;;;28.70;68.00;;;;;;5074402;28;20372;-64
2022/06/09 09:20:26;;;;;;;;;;;28.50;67.20;;;;;;5074459;28;20321;-64
2022/06/09 09:23:03;;;;;;;;;;;28.40;67.90;;;;;;5074187;28;19916;-64
2022/06/09 09:25:44;;;;;;;;;;;28.30;67.90;;;;;;5073996;28;19920;-64
2022/06/09 09:28:15;;;;;;;;;;;28.10;68.00;;;;;;5073972;28;19912;-64
2022/06/09 09:31:00;;;;;;;;;;;27.90;67.80;;;;;;5074186;28;19916;-63
2022/06/09 09:33:27;;;;;;;;;;;28.10;68.50;;;;;;5072483;28;20023;-63
2022/06/09 09:35:55;;;;;;;;;;;28.70;67.70;;;;;;5074264;28;19940;-64
2022/06/09 09:38:21;;;;;;;;;;;29.30;67.40;;;;;;5074007;28;19920;-63
2022/06/09 09:40:48;;;;;;;;;;;29.90;65.60;;;;;;5074124;28;19912;-64
2022/06/09 09:43:15;;;;;;;;;;;30.30;64.40;;;;;;5073667;28;19912;-63
2022/06/09 09:45:42;;;;;;;;;;;30.70;63.70;;;;;;5074074;28;20409;-64
2022/06/09 09:48:29;;;;;;;;;;;31.00;63.50;;;;;;5073705;28;20253;-64
2022/06/09 09:50:57;;;;;;;;;;;31.30;63.00;;;;;;5073427;28;20307;-64
2022/06/09 09:53:27;;;;;;;;;;;31.50;63.10;;;;;;5072996;28;19916;-64
2022/06/09 09:55:54;;;;;;;;;;;31.80;63.20;;;;;;5073778;28;19920;-64
2022/06/09 09:58:21;;;;;;;;;;;31.90;61.30;;;;;;5073322;28;19912;-64
2022/06/09 10:00:49;;;;;;;;;;;31.90;62.30;;;;;;5073801;28;19919;-64
2022/06/09 10:08:50;;;;;;;;;;;32.10;61.30;;;;;;5073521;28;19919;-63
2022/06/09 10:14:32;;;;;;;;;;;31.30;61.60;;;;;;5073497;28;20423;-64
2022/06/09 10:16:58;;;;;;;;;;;31.50;61.80;;;;;;5065777;28;19916;-64
2022/06/09 10:19:27;;;;;;;;;;;31.80;61.60;;;;;;5072960;28;19919;-64
2022/06/09 10:21:58;;;;;;;;;;;32.10;61.00;;;;;;5073491;28;19977;-64
2022/06/09 10:24:43;;;;;;;;;;;32.20;60.50;;;;;;5072666;28;19935;-64
2022/06/09 10:27:13;;;;;;;;;;;32.40;60.30;;;;;;5073150;28;20054;-63
2022/06/09 10:29:44;;;;;;;;;;;32.40;60.20;;;;;;5072880;28;19932;-64
2022/06/09 10:32:27;;;;;;;;;;;32.20;59.90;;;;;;5072992;28;19921;-64
2022/06/09 10:34:56;;;;;;;;;;;32.30;59.80;;;;;;5072481;28;19959;-64
2022/06/09 10:37:27;;;;;;;;;;;32.70;59.70;;;;;;5072833;28;20114;-63
2022/06/09 10:39:58;;;;;;;;;;;32.90;59.50;;;;;;5071617;28;20373;-64
2022/06/09 10:42:33;;;;;;;;;;;32.90;58.80;;;;;;5073127;28;20015;-64
2022/06/09 10:45:11;;;;;;;;;;;32.30;59.80;;;;;;5072753;28;19909;-63
2022/06/09 10:56:23;;;;;;;;;;;30.30;62.70;;;;;;5073133;28;19915;-65
2022/06/09 10:58:58;;;;;;;;;;;30.00;63.30;;;;;;5072271;28;20356;-64
2022/06/09 11:01:26;;;;;;;;;;;30.10;63.90;;;;;;5072825;28;19909;-62
2022/06/09 11:03:51;;;;;;;;;;;30.70;63.90;;;;;;5071381;28;19916;-62
2022/06/09 11:06:21;;;;;;;;;;;31.40;62.80;;;;;;5071303;28;20280;-62
2022/06/09 11:08:52;;;;;;;;;;;31.80;61.40;;;;;;5072416;28;19967;-63
2022/06/09 11:11:24;;;;;;;;;;;32.00;61.50;;;;;;5072663;28;19919;-63
2022/06/09 11:13:57;;;;;;;;;;;32.40;60.00;;;;;;5071889;28;19917;-64
2022/06/09 11:16:42;;;;;;;;;;;32.90;59.10;;;;;;5071037;28;20378;-64
2022/06/09 11:19:08;;;;;;;;;;;33.20;58.70;;;;;;5071937;28;19922;-64
2022/06/09 11:21:42;;;;;;;;;;;33.50;59.40;;;;;;5072084;28;19995;-63
2022/06/09 11:24:34;;;;;;;;;;;33.70;58.40;;;;;;5071336;28;19924;-63
2022/06/09 11:27:23;;;;;;;;;;;33.80;59.40;;;;;;5069567;28;19970;-64
2022/06/09 11:30:07;;;;;;;;;;;33.50;58.40;;;;;;5066164;28;19952;-63
2022/06/09 11:32:44;;;;;;;;;;;32.80;58.90;;;;;;5071711;28;19916;-63
2022/06/09 11:35:24;;;;;;;;;;;32.60;59.80;;;;;;5071801;28;19914;-63
2022/06/09 11:38:08;;;;;;;;;;;32.10;60.20;;;;;;5071571;28;19912;-64
2022/06/09 11:40:48;;;;;;;;;;;31.30;60.70;;;;;;5070214;28;20003;-64
2022/06/09 11:43:32;;;;;;;;;;;30.90;61.30;;;;;;5069945;28;19912;-67
2022/06/09 11:46:00;;;;;;;;;;;30.40;62.20;;;;;;5071315;28;19966;-74
2022/06/09 11:48:31;;;;;;;;;;;29.90;63.20;;;;;;5071422;28;19917;-74
2022/06/09 11:50:57;;;;;;;;;;;29.80;63.40;;;;;;5071756;28;19931;-74
2022/06/09 11:53:28;;;;;;;;;;;29.50;64.00;;;;;;5070252;28;19912;-74
2022/06/09 11:56:33;;;;;;;;;;;29.10;65.10;;;;;;5071711;28;19912;-74
2022/06/09 11:58:59;;;;;;;;;;;29.00;66.60;;;;;;5071215;28;19912;-75
2022/06/09 12:01:40;;;;;;;;;;;28.90;66.60;;;;;;5071283;28;19931;-75
2022/06/09 12:04:24;;;;;;;;;;;29.00;65.80;;;;;;5071537;28;19912;-75
2022/06/09 12:07:01;;;;;;;;;;;29.00;66.30;;;;;;5069790;28;19960;-73
2022/06/09 12:09:45;;;;;;;;;;;29.00;65.40;;;;;;5071298;28;19973;-74
2022/06/09 12:12:25;;;;;;;;;;;28.90;65.30;;;;;;5071276;28;19921;-74
2022/06/09 12:15:26;;;;;;;;;;;28.70;65.00;;;;;;5069956;28;20239;-74
2022/06/09 12:17:56;;;;;;;;;;;28.80;65.20;;;;;;5011747;28;20015;-74
2022/06/09 12:20:33;;;;;;;;;;;29.50;65.50;;;;;;5064025;28;19912;-74
2022/06/09 12:23:00;;;;;;;;;;;30.10;64.70;;;;;;5071288;28;20253;-74
2022/06/09 12:25:28;;;;;;;;;;;30.40;62.10;;;;;;5069600;28;20392;-73
2022/06/09 12:27:55;;;;;;;;;;;30.70;61.40;;;;;;5071246;28;20433;-73
2022/06/09 12:30:24;;;;;;;;;;;31.00;61.50;;;;;;5071384;28;20260;-73
2022/06/09 12:32:51;;;;;;;;;;;31.20;61.10;;;;;;5071218;28;20419;-75
2022/06/09 12:35:16;;;;;;;;;;;31.30;60.60;;;;;;5071269;28;19920;-73
2022/06/09 12:37:48;;;;;;;;;;;31.30;60.30;;;;;;5071024;28;19913;-73
2022/06/09 12:40:17;;;;;;;;;;;31.10;60.40;;;;;;5071224;28;19919;-73
2022/06/09 12:42:48;;;;;;;;;;;30.60;61.30;;;;;;5070957;28;19965;-74
2022/06/09 12:45:19;;;;;;;;;;;30.20;61.90;;;;;;5070488;28;19912;-74
2022/06/09 12:48:11;;;;;;;;;;;29.80;62.40;;;;;;5071001;28;19913;-73
2022/06/09 12:50:48;;;;;;;;;;;29.40;63.40;;;;;;5068715;28;19970;-74
2022/06/09 12:53:34;;;;;;;;;;;29.10;64.10;;;;;;5069494;28;19939;-74
2022/06/09 12:56:02;;;;;;;;;;;28.70;64.90;;;;;;5071222;28;19920;-73
2022/06/09 12:58:34;;;;;;;;;;;28.60;64.90;;;;;;5070706;28;19913;-74
2022/06/09 13:01:01;;;;;;;;;;;28.60;64.90;;;;;;5071089;28;19913;-74
2022/06/09 13:03:29;;;;;;;;;;;28.60;65.30;;;;;;5070791;28;19990;-75
2022/06/09 13:05:55;;;;;;;;;;;28.60;65.90;;;;;;5069358;28;20160;-74
2022/06/09 13:08:25;;;;;;;;;;;28.50;66.10;;;;;;5070725;28;20385;-74
2022/06/09 13:10:57;;;;;;;;;;;28.50;66.40;;;;;;5070772;28;20402;-74
2022/06/09 13:13:28;;;;;;;;;;;28.40;66.30;;;;;;5069264;28;19913;-75
2022/06/09 13:16:10;;;;;;;;;;;28.40;66.80;;;;;;5070843;28;19916;-74
2022/06/09 13:18:38;;;;;;;;;;;28.30;66.00;;;;;;5070582;28;20019;-75
2022/06/09 13:21:08;;;;;;;;;;;28.30;66.50;;;;;;5070839;28;19968;-74
2022/06/09 13:23:34;;;;;;;;;;;28.30;67.00;;;;;;5070508;28;19924;-74
2022/06/09 13:26:00;;;;;;;;;;;28.30;67.30;;;;;;5070804;28;19920;-74
2022/06/09 13:28:58;;;;;;;;;;;28.30;67.50;;;;;;5073948;28;20010;-74
2022/06/09 13:31:41;;;;;;;;;;;28.30;68.20;;;;;;5050696;28;19917;-74
2022/06/09 13:34:09;;;;;;;;;;;28.30;68.50;;;;;;5072899;28;19920;-75
2022/06/09 13:36:41;;;;;;;;;;;28.30;68.20;;;;;;5074770;28;19921;-74
2022/06/09 13:39:21;;;;;;;;;;;28.20;68.10;;;;;;5072887;28;19912;-74
2022/06/09 13:41:47;;;;;;;;;;;28.00;68.90;;;;;;5072736;28;19916;-74
2022/06/09 13:44:16;;;;;;;;;;;28.00;69.20;;;;;;5074189;28;19908;-74
2022/06/09 13:46:56;;;;;;;;;;;28.20;69.00;;;;;;5074163;28;19924;-74
2022/06/09 13:49:24;;;;;;;;;;;28.20;68.60;;;;;;5072633;28;19908;-73
2022/06/09 13:51:53;;;;;;;;;;;28.30;68.00;;;;;;5073709;28;19924;-73
2022/06/09 13:54:21;;;;;;;;;;;28.30;68.20;;;;;;5073855;28;20368;-73
2022/06/09 13:56:48;;;;;;;;;;;28.30;68.60;;;;;;5073860;28;19924;-73
2022/06/09 13:59:14;;;;;;;;;;;28.40;67.50;;;;;;5074084;28;19908;-74
2022/06/09 14:01:39;;;;;;;;;;;28.40;68.20;;;;;;5073532;28;19970;-73
2022/06/09 14:04:11;;;;;;;;;;;28.30;68.00;;;;;;5073732;28;19917;-73
2022/06/09 14:06:37;;;;;;;;;;;28.30;68.40;;;;;;5073358;28;19917;-72
2022/06/09 14:09:03;;;;;;;;;;;28.30;68.40;;;;;;5073739;28;19958;-73
2022/06/09 14:11:30;;;;;;;;;;;28.30;68.50;;;;;;5073199;28;19919;-73
2022/06/09 14:13:55;;;;;;;;;;;28.20;68.50;;;;;;5055669;28;20023;-73
2022/06/09 14:16:35;;;;;;;;;;;28.10;68.10;;;;;;5073254;28;20002;-74
2022/06/09 14:19:01;;;;;;;;;;;28.10;67.60;;;;;;5073371;28;19942;-74
2022/06/09 14:21:29;;;;;;;;;;;28.00;67.70;;;;;;5073412;28;19930;-73
2022/06/09 14:23:55;;;;;;;;;;;28.00;67.60;;;;;;5071717;28;19922;-73
2022/06/09 14:26:29;;;;;;;;;;;28.00;67.80;;;;;;5073101;28;19995;-74
2022/06/09 14:28:55;;;;;;;;;;;28.00;67.90;;;;;;5073587;28;19913;-74
2022/06/09 14:31:22;;;;;;;;;;;27.90;67.20;;;;;;5071308;28;19991;-74
2022/06/09 14:33:48;;;;;;;;;;;27.90;67.20;;;;;;5073027;28;20003;-74
2022/06/09 14:36:16;;;;;;;;;;;28.00;66.80;;;;;;5072831;28;19992;-74
2022/06/09 14:38:42;;;;;;;;;;;28.00;67.20;;;;;;5072732;28;19963;-74
2022/06/09 14:41:07;;;;;;;;;;;27.90;67.30;;;;;;5072907;28;19908;-74
2022/06/09 14:43:33;;;;;;;;;;;28.00;67.60;;;;;;5073270;28;19912;-75
2022/06/09 14:45:59;;;;;;;;;;;28.10;67.80;;;;;;5072878;28;19916;-73
2022/06/09 14:48:26;;;;;;;;;;;28.10;67.50;;;;;;5071599;28;19912;-74
2022/06/09 14:50:52;;;;;;;;;;;28.10;67.40;;;;;;5072742;28;20422;-74
2022/06/09 14:53:17;;;;;;;;;;;28.20;67.50;;;;;;5072281;28;19921;-74